WEATHER (Fire Weather Index)

Walker Flat, South Australia  


The below Fire Weather Index uses data from this weather station, with the prediction using API provided through https://www.yourweather.co.uk
Forecast derived daily at station roll over time, 9:00 am local time



A Fire Weather Index for personal weather stations

(See below the table for background)
Legend:
Low (0-210)
Very High (490 - 630)

Moderate (210 - 350)
Extreme (630 - 800)

High (350 - 490)
Catastrophic (800+)


156.1
Date Temp. (°C) Wind Speed (km/h) Rain (mm) RH Days since Rain pwsFWI
Prediction is active (including today!), values are above red line.
22/05/21 14.0 24.0 1.6 0.49 0 47.7
21/05/21 15.0 39.0 3.8 0.66 0 79.4
20/05/21 14.0 33.0 1.2 0.63 0 104.7
19/05/21 16.0 19.0 3.2 0.56 0 128.1
18/05/21 16.0 22.0 3.2 0.62 0 152.5
17/05/21 18.2 13.0 0.0 0.48 7 156.1
16/05/21 17.6 14.0 0.0 0.49 6 147.4
15/05/21 16.3 16.0 0.0 0.52 5 117.7
14/05/21 16.9 18.0 0.0 0.60 4 118.5
13/05/21 17.0 18.0 0.0 0.65 3 109.5
12/05/21 19.9 5.0 0.0 0.49 2 109.4
11/05/21 15.1 13.0 0.0 0.54 1 111.2
10/05/21 17.3 27.0 1.2 0.66 0 125.5
09/05/21 21.4 11.0 1.0 0.46 0 148.2
08/05/21 20.2 13.0 0.0 0.68 5 123.0
07/05/21 24.4 6.0 0.0 0.31 4 139.9
06/05/21 18.9 6.0 0.0 0.44 3 187.8
05/05/21 17.9 8.0 0.0 0.46 2 225.8
04/05/21 16.6 19.0 0.0 0.43 1 230.8
03/05/21 18.2 14.0 1.8 0.70 0 237.6
02/05/21 25.1 10.0 0.0 0.41 11 255.2
01/05/21 27.8 14.0 0.0 0.29 10 230.7
30/04/21 25.5 11.0 0.0 0.25 9 190.6
29/04/21 24.3 6.0 0.0 0.35 8 162.5
28/04/21 21.7 14.0 0.0 0.45 7 166.1
27/04/21 21.2 6.0 0.0 0.49 6 165.0
26/04/21 20.7 6.0 0.0 0.52 5 164.1
25/04/21 21.7 13.0 0.0 0.48 4 149.1
24/04/21 20.9 11.0 0.0 0.51 3 134.8
23/04/21 20.8 11.3 0.0 0.49 2 149.2

CumulusUtils Version 5.0.4 - generated at 18/05/2021 09:00 - © Hans Rottier
Science background here. Prediction: https://www.yourweather.co.uk/


The information provided herein is for informational purposes only and is not guaranteed to be accurate in any way. Do not make any life threatening decisions either directly or indirectly based on the information herein, no responsibility is accepted for any injuries, accidents or other incidents whether fatal or non-fatal, as a direct or indirect result of actions taken based upon the information herein.
Please refer to the Australian Government Bureau of Meteorology for the official weather and forecast.


Copyright © 2021

data page by  CumulusUtils (Hans Rottier)
background info  pwsFWI Hans Rottier



page updated 5/18/2021 9:00:01 AM
cumulus software support forum
powered by  cumulusMX v3.10.5 (3122)
maintained by  Ankara Youth Camp

Flag Counter